Time;durP1;ratioP1;P1;durP2;ratioP2;P2;SDS_P1;SDS_P2;PMS_P1;PMS_P2;Temp;Humidity;BMP_temperature;BMP_pressure;BME280_temperature;BME280_humidity;BME280_pressure;Samples;Min_cycle;Max_cycle;Signal;HPM_P1;HPM_P2
2022/01/10 00:02:24;;;;;;;;;;;0.70;99.90;;;;;;5027699;28;19917;-76
2022/01/10 00:04:50;;;;;;;;;;;0.70;99.90;;;;;;5009380;28;19924;-77
2022/01/10 00:07:16;;;;;;;;;;;0.70;99.90;;;;;;5009102;28;20027;-75
2022/01/10 00:09:41;;;;;;;;;;;0.80;99.90;;;;;;5027481;28;20383;-77
2022/01/10 00:12:07;;;;;;;;;;;0.70;99.90;;;;;;5026872;28;19943;-76
2022/01/10 00:14:33;;;;;;;;;;;0.60;99.90;;;;;;5010390;28;19928;-77
2022/01/10 00:16:58;;;;;;;;;;;0.60;99.90;;;;;;5012992;28;20618;-77
2022/01/10 00:19:24;;;;;;;;;;;0.60;99.90;;;;;;5013384;28;19917;-76
2022/01/10 00:21:50;;;;;;;;;;;0.50;99.90;;;;;;5030853;28;19921;-76
2022/01/10 00:24:15;;;;;;;;;;;0.50;99.90;;;;;;5010905;28;19927;-76
2022/01/10 00:26:41;;;;;;;;;;;0.50;99.90;;;;;;5031236;28;19924;-76
2022/01/10 00:29:06;;;;;;;;;;;0.50;99.90;;;;;;5031265;28;19925;-76
2022/01/10 00:31:32;;;;;;;;;;;0.50;99.90;;;;;;5013405;28;19925;-76
2022/01/10 00:33:58;;;;;;;;;;;0.60;99.90;;;;;;5013161;28;19913;-76
2022/01/10 00:36:25;;;;;;;;;;;0.60;99.90;;;;;;5013680;28;19966;-76
2022/01/10 00:38:50;;;;;;;;;;;0.50;99.90;;;;;;5013410;28;19920;-76
2022/01/10 00:41:16;;;;;;;;;;;0.40;99.90;;;;;;5013715;28;20262;-76
2022/01/10 00:43:46;;;;;;;;;;;0.40;99.90;;;;;;5013364;28;19921;-76
2022/01/10 00:46:11;;;;;;;;;;;0.30;99.90;;;;;;5030891;28;19987;-77
2022/01/10 00:48:37;;;;;;;;;;;0.30;99.90;;;;;;5013152;28;20359;-76
2022/01/10 00:51:02;;;;;;;;;;;0.30;99.90;;;;;;5031473;28;20321;-75
2022/01/10 00:53:28;;;;;;;;;;;0.20;99.90;;;;;;5030990;28;19917;-76
2022/01/10 00:55:54;;;;;;;;;;;0.20;99.90;;;;;;5031589;28;20297;-75
2022/01/10 00:58:19;;;;;;;;;;;0.10;99.90;;;;;;5031333;28;19924;-76
2022/01/10 01:00:45;;;;;;;;;;;0.20;99.90;;;;;;5013529;28;20032;-76
2022/01/10 01:03:10;;;;;;;;;;;0.30;99.90;;;;;;5013271;28;19936;-76
2022/01/10 01:05:41;;;;;;;;;;;0.30;99.90;;;;;;5031221;28;20347;-75
2022/01/10 01:08:08;;;;;;;;;;;0.30;99.90;;;;;;5013120;28;19916;-76
2022/01/10 01:13:52;;;;;;;;;;;0.40;99.90;;;;;;5030924;28;19921;-76
2022/01/10 01:24:05;;;;;;;;;;;0.30;99.90;;;;;;5029938;28;19920;-76
2022/01/10 01:26:35;;;;;;;;;;;0.30;99.90;;;;;;5029964;28;19921;-76
2022/01/10 01:29:02;;;;;;;;;;;0.30;99.90;;;;;;5030699;28;19957;-76
2022/01/10 01:31:27;;;;;;;;;;;0.40;99.90;;;;;;5030913;28;19917;-76
2022/01/10 01:33:53;;;;;;;;;;;0.40;99.90;;;;;;5031032;28;20272;-76
2022/01/10 01:36:24;;;;;;;;;;;0.50;99.90;;;;;;5030203;28;19964;-76
2022/01/10 01:38:50;;;;;;;;;;;0.50;99.90;;;;;;5012400;28;20372;-76
2022/01/10 01:43:57;;;;;;;;;;;0.40;99.90;;;;;;5030597;28;19917;-75
2022/01/10 01:46:22;;;;;;;;;;;0.40;99.90;;;;;;5006595;28;19929;-76
2022/01/10 01:48:49;;;;;;;;;;;0.30;99.90;;;;;;5006800;28;19925;-76
2022/01/10 01:51:14;;;;;;;;;;;0.20;99.90;;;;;;5008968;28;19917;-76
2022/01/10 01:53:40;;;;;;;;;;;0.10;99.90;;;;;;5003856;28;20636;-76
2022/01/10 01:56:07;;;;;;;;;;;0.20;99.90;;;;;;5004584;28;19913;-76
2022/01/10 01:58:33;;;;;;;;;;;0.30;99.90;;;;;;5006163;28;19928;-76
2022/01/10 02:00:59;;;;;;;;;;;0.30;99.90;;;;;;5005768;28;19917;-76
2022/01/10 02:03:25;;;;;;;;;;;0.20;99.90;;;;;;5006713;28;20365;-76
2022/01/10 02:05:50;;;;;;;;;;;0.10;99.90;;;;;;5006728;28;20297;-76
2022/01/10 02:08:16;;;;;;;;;;;0.10;99.90;;;;;;5007562;28;19922;-76
2022/01/10 02:10:41;;;;;;;;;;;0.10;99.90;;;;;;5007071;28;19932;-76
2022/01/10 02:13:07;;;;;;;;;;;0.10;99.90;;;;;;5008102;28;19917;-77
2022/01/10 02:15:42;;;;;;;;;;;0.00;99.90;;;;;;5006395;28;19932;-76
2022/01/10 02:18:07;;;;;;;;;;;0.00;99.90;;;;;;5009488;28;19917;-76
2022/01/10 02:20:33;;;;;;;;;;;0.00;99.90;;;;;;5005420;28;20210;-76
2022/01/10 02:22:59;;;;;;;;;;;0.10;99.90;;;;;;5005661;28;20279;-76
2022/01/10 02:25:25;;;;;;;;;;;0.10;99.90;;;;;;5006037;28;19913;-76
2022/01/10 02:27:50;;;;;;;;;;;0.10;99.90;;;;;;5007694;28;19913;-76
2022/01/10 02:30:16;;;;;;;;;;;0.20;99.90;;;;;;5004646;28;19928;-76
2022/01/10 02:32:42;;;;;;;;;;;0.20;99.90;;;;;;5005603;28;19952;-75
2022/01/10 02:35:21;;;;;;;;;;;0.20;99.90;;;;;;5006894;28;19953;-76
2022/01/10 02:37:48;;;;;;;;;;;0.20;99.90;;;;;;5005266;28;19918;-76
2022/01/10 02:40:15;;;;;;;;;;;0.30;99.90;;;;;;5005322;28;20257;-76
2022/01/10 02:42:40;;;;;;;;;;;0.30;99.90;;;;;;5004797;28;20327;-76
2022/01/10 02:45:06;;;;;;;;;;;0.20;99.90;;;;;;5014812;28;19925;-76
2022/01/10 02:47:32;;;;;;;;;;;0.20;99.90;;;;;;5029289;28;20220;-76
2022/01/10 02:49:57;;;;;;;;;;;0.20;99.90;;;;;;5028422;28;19920;-76
2022/01/10 02:52:23;;;;;;;;;;;0.20;99.90;;;;;;5011475;28;19921;-77
2022/01/10 02:54:49;;;;;;;;;;;0.20;99.90;;;;;;5029143;28;20335;-76
2022/01/10 02:57:14;;;;;;;;;;;0.20;99.90;;;;;;5029017;28;19917;-76
2022/01/10 02:59:40;;;;;;;;;;;0.20;99.90;;;;;;5029639;28;20355;-76
2022/01/10 03:02:07;;;;;;;;;;;0.40;99.90;;;;;;5029169;28;20307;-76
2022/01/10 03:04:33;;;;;;;;;;;0.50;99.90;;;;;;5011446;28;19959;-76
2022/01/10 03:06:59;;;;;;;;;;;0.50;99.90;;;;;;5011061;28;19948;-76
2022/01/10 03:09:24;;;;;;;;;;;0.50;99.90;;;;;;5011063;28;19921;-76
2022/01/10 03:11:50;;;;;;;;;;;0.50;99.90;;;;;;5027901;28;19917;-76
2022/01/10 03:14:16;;;;;;;;;;;0.50;99.90;;;;;;5010497;28;20231;-76
2022/01/10 03:16:41;;;;;;;;;;;0.40;99.90;;;;;;5028789;28;19917;-76
2022/01/10 03:19:07;;;;;;;;;;;0.40;99.90;;;;;;5028699;28;19943;-76
2022/01/10 03:21:35;;;;;;;;;;;0.60;99.90;;;;;;5018837;23;19921;-76
2022/01/10 03:24:01;;;;;;;;;;;0.70;99.90;;;;;;5002533;28;20008;-76
2022/01/10 03:26:27;;;;;;;;;;;0.60;99.90;;;;;;5009311;28;20017;-76
2022/01/10 03:28:53;;;;;;;;;;;0.60;99.90;;;;;;5008143;28;19952;-76
2022/01/10 03:31:19;;;;;;;;;;;0.60;99.90;;;;;;5018933;28;19928;-77
2022/01/10 03:33:45;;;;;;;;;;;0.50;99.90;;;;;;5009203;28;20264;-76
2022/01/10 03:36:11;;;;;;;;;;;0.50;99.90;;;;;;5009143;28;19924;-75
2022/01/10 03:38:37;;;;;;;;;;;0.50;99.90;;;;;;5009047;28;19921;-76
2022/01/10 03:41:02;;;;;;;;;;;0.60;99.90;;;;;;5008817;28;19960;-76
2022/01/10 03:43:28;;;;;;;;;;;0.60;99.90;;;;;;5009065;28;19918;-76
2022/01/10 03:45:54;;;;;;;;;;;0.70;99.90;;;;;;5017273;28;19920;-77
2022/01/10 03:48:19;;;;;;;;;;;0.80;99.90;;;;;;5012509;28;20289;-77
2022/01/10 03:50:45;;;;;;;;;;;0.80;99.90;;;;;;5017556;28;19933;-77
2022/01/10 03:53:11;;;;;;;;;;;0.80;99.90;;;;;;5012487;28;19937;-76
2022/01/10 03:55:38;;;;;;;;;;;0.90;99.90;;;;;;5012487;28;20307;-76
2022/01/10 03:58:03;;;;;;;;;;;0.80;99.90;;;;;;5012163;28;20325;-77
2022/01/10 04:00:29;;;;;;;;;;;0.70;99.90;;;;;;5018886;28;19953;-76
2022/01/10 04:03:03;;;;;;;;;;;0.70;99.90;;;;;;5019434;28;19955;-78
2022/01/10 04:05:29;;;;;;;;;;;0.70;99.90;;;;;;5012017;28;19924;-76
2022/01/10 04:07:55;;;;;;;;;;;0.70;99.90;;;;;;5012565;28;19921;-76
2022/01/10 04:10:20;;;;;;;;;;;0.70;99.90;;;;;;5024265;28;20316;-76
2022/01/10 04:12:46;;;;;;;;;;;0.60;99.90;;;;;;5012287;28;20031;-75
2022/01/10 04:15:11;;;;;;;;;;;0.70;99.90;;;;;;5010903;28;19917;-76
2022/01/10 04:17:37;;;;;;;;;;;0.70;99.90;;;;;;5015901;28;19922;-76
2022/01/10 04:20:04;;;;;;;;;;;0.80;99.90;;;;;;5019824;28;19917;-75
2022/01/10 04:22:29;;;;;;;;;;;0.90;99.90;;;;;;5019329;28;20236;-76
2022/01/10 04:24:55;;;;;;;;;;;0.90;99.90;;;;;;5012200;28;19918;-76
2022/01/10 04:27:20;;;;;;;;;;;0.80;99.90;;;;;;5011854;28;20332;-76
2022/01/10 04:29:46;;;;;;;;;;;0.90;99.90;;;;;;5011535;28;19926;-76
2022/01/10 04:32:12;;;;;;;;;;;0.90;99.90;;;;;;5011704;28;19921;-76
2022/01/10 04:34:38;;;;;;;;;;;0.80;99.90;;;;;;5022864;28;19945;-76
2022/01/10 04:37:04;;;;;;;;;;;0.90;99.90;;;;;;5011628;28;19922;-76
2022/01/10 04:39:30;;;;;;;;;;;1.00;99.90;;;;;;5021063;28;19924;-76
2022/01/10 04:41:56;;;;;;;;;;;1.00;99.90;;;;;;5011772;28;20228;-76
2022/01/10 04:44:21;;;;;;;;;;;1.00;99.90;;;;;;5011523;28;19913;-75
2022/01/10 04:46:47;;;;;;;;;;;1.10;99.90;;;;;;5012048;28;19918;-76
2022/01/10 04:49:21;;;;;;;;;;;1.10;99.90;;;;;;5012055;28;20007;-76
2022/01/10 04:51:47;;;;;;;;;;;1.20;99.90;;;;;;5011840;28;19917;-76
2022/01/10 04:54:13;;;;;;;;;;;1.10;99.90;;;;;;5015516;28;20380;-76
2022/01/10 04:56:39;;;;;;;;;;;1.10;99.90;;;;;;5011861;28;20009;-76
2022/01/10 04:59:05;;;;;;;;;;;1.00;99.90;;;;;;5021824;28;19920;-76
2022/01/10 05:01:31;;;;;;;;;;;1.10;99.90;;;;;;5010842;28;20388;-76
2022/01/10 05:03:57;;;;;;;;;;;1.00;99.90;;;;;;5009589;28;19922;-76
2022/01/10 05:06:22;;;;;;;;;;;1.10;99.90;;;;;;5003614;28;20309;-76
2022/01/10 05:08:48;;;;;;;;;;;1.20;99.90;;;;;;5014607;28;19945;-75
2022/01/10 05:11:13;;;;;;;;;;;1.20;99.90;;;;;;5009880;28;20020;-76
2022/01/10 05:13:39;;;;;;;;;;;1.10;99.90;;;;;;5009924;28;19917;-75
2022/01/10 05:16:05;;;;;;;;;;;1.10;99.90;;;;;;5011135;28;19924;-77
2022/01/10 05:18:31;;;;;;;;;;;1.10;99.90;;;;;;5010605;28;19921;-76
2022/01/10 05:20:57;;;;;;;;;;;1.10;99.90;;;;;;5011303;28;19914;-76
2022/01/10 05:23:22;;;;;;;;;;;1.20;99.90;;;;;;5017422;28;19932;-75
2022/01/10 05:25:48;;;;;;;;;;;1.20;99.90;;;;;;5010765;28;20328;-75
2022/01/10 05:28:16;;;;;;;;;;;1.20;99.90;;;;;;5011078;28;19925;-75
2022/01/10 05:30:42;;;;;;;;;;;1.20;99.90;;;;;;5010813;28;19932;-75
2022/01/10 05:33:08;;;;;;;;;;;1.20;99.90;;;;;;5011239;28;19936;-75
2022/01/10 05:35:34;;;;;;;;;;;1.30;99.90;;;;;;5020042;28;20275;-75
2022/01/10 05:38:00;;;;;;;;;;;1.20;99.90;;;;;;5010471;28;20220;-75
2022/01/10 05:40:25;;;;;;;;;;;1.30;99.90;;;;;;5010540;28;19924;-75
2022/01/10 05:42:51;;;;;;;;;;;1.40;99.90;;;;;;5018892;28;19949;-75
2022/01/10 05:45:17;;;;;;;;;;;1.30;99.90;;;;;;5010771;28;20307;-75
2022/01/10 05:47:45;;;;;;;;;;;1.30;99.90;;;;;;5015923;28;20008;-76
2022/01/10 05:50:11;;;;;;;;;;;1.30;99.90;;;;;;5010745;28;19921;-76
2022/01/10 05:52:38;;;;;;;;;;;1.20;99.90;;;;;;5010508;28;19922;-75
2022/01/10 05:55:04;;;;;;;;;;;1.20;99.90;;;;;;5010018;28;20300;-76
2022/01/10 05:57:29;;;;;;;;;;;1.20;99.90;;;;;;5010653;28;19967;-76
2022/01/10 05:59:55;;;;;;;;;;;1.30;99.90;;;;;;5023229;28;19913;-76
2022/01/10 06:02:21;;;;;;;;;;;1.30;99.90;;;;;;5010111;28;19913;-76
2022/01/10 06:04:46;;;;;;;;;;;1.30;99.90;;;;;;5018586;28;19921;-76
2022/01/10 06:07:13;;;;;;;;;;;1.30;99.90;;;;;;5010390;28;20012;-75
2022/01/10 06:09:38;;;;;;;;;;;1.30;99.90;;;;;;5010301;28;19972;-76
2022/01/10 06:12:04;;;;;;;;;;;1.40;99.90;;;;;;5016965;28;19936;-76
2022/01/10 06:14:30;;;;;;;;;;;1.50;99.90;;;;;;5007785;28;19925;-75
2022/01/10 06:16:55;;;;;;;;;;;1.50;99.90;;;;;;5010429;28;20000;-76
2022/01/10 06:19:21;;;;;;;;;;;1.50;99.90;;;;;;5010146;28;19918;-76
2022/01/10 06:21:46;;;;;;;;;;;1.60;99.90;;;;;;5009646;28;19925;-76
2022/01/10 06:24:12;;;;;;;;;;;1.60;99.90;;;;;;5010387;28;20283;-76
2022/01/10 06:26:38;;;;;;;;;;;1.60;99.90;;;;;;5014573;28;19917;-76
2022/01/10 06:29:03;;;;;;;;;;;1.70;99.90;;;;;;5009321;28;19921;-75
2022/01/10 06:31:29;;;;;;;;;;;1.70;99.90;;;;;;5015913;28;19921;-75
2022/01/10 06:33:55;;;;;;;;;;;1.70;99.90;;;;;;5009392;28;19917;-75
2022/01/10 06:36:20;;;;;;;;;;;1.60;99.90;;;;;;5016151;28;19924;-76
2022/01/10 06:38:46;;;;;;;;;;;1.50;99.90;;;;;;5009152;28;19975;-75
2022/01/10 06:41:11;;;;;;;;;;;1.60;99.90;;;;;;5010131;28;19921;-76
2022/01/10 06:43:37;;;;;;;;;;;1.70;99.90;;;;;;5009895;28;19960;-75
2022/01/10 06:46:03;;;;;;;;;;;1.60;99.90;;;;;;5018293;28;20000;-75
2022/01/10 06:48:29;;;;;;;;;;;1.60;99.90;;;;;;5009995;28;20004;-76
2022/01/10 06:50:55;;;;;;;;;;;1.70;99.90;;;;;;5008895;28;20078;-75
2022/01/10 06:53:21;;;;;;;;;;;1.70;99.90;;;;;;5009625;28;20259;-76
2022/01/10 06:55:47;;;;;;;;;;;1.70;99.90;;;;;;5009278;28;20016;-76
2022/01/10 06:58:13;;;;;;;;;;;1.60;99.90;;;;;;5009267;28;19960;-77
2022/01/10 07:00:39;;;;;;;;;;;1.70;99.90;;;;;;5008822;28;20025;-76
2022/01/10 07:03:04;;;;;;;;;;;1.70;99.90;;;;;;5009025;28;19921;-75
2022/01/10 07:05:30;;;;;;;;;;;1.70;99.90;;;;;;5008241;28;19925;-75
2022/01/10 07:07:55;;;;;;;;;;;1.60;99.90;;;;;;5014363;28;19956;-76
2022/01/10 07:10:21;;;;;;;;;;;1.60;99.90;;;;;;5015806;28;19922;-75
2022/01/10 07:12:47;;;;;;;;;;;1.70;99.90;;;;;;5006339;28;19917;-76
2022/01/10 07:15:12;;;;;;;;;;;1.60;99.90;;;;;;4997772;28;19944;-76
2022/01/10 07:17:38;;;;;;;;;;;1.60;99.90;;;;;;5007141;28;20417;-76
2022/01/10 07:20:04;;;;;;;;;;;1.50;99.90;;;;;;5005311;28;20233;-76
2022/01/10 07:22:30;;;;;;;;;;;1.50;99.90;;;;;;5007905;28;19931;-75
2022/01/10 07:24:55;;;;;;;;;;;1.50;99.90;;;;;;5019437;28;19917;-75
2022/01/10 07:27:21;;;;;;;;;;;1.40;99.90;;;;;;5011499;28;19918;-76
2022/01/10 07:29:49;;;;;;;;;;;1.40;99.90;;;;;;5004697;28;20241;-76
2022/01/10 07:32:15;;;;;;;;;;;1.50;99.90;;;;;;5014157;28;19928;-76
2022/01/10 07:34:41;;;;;;;;;;;1.50;99.90;;;;;;5014834;28;19995;-76
2022/01/10 07:37:06;;;;;;;;;;;1.60;99.90;;;;;;5011884;28;19917;-76
2022/01/10 07:39:32;;;;;;;;;;;1.60;99.90;;;;;;5017353;28;19921;-76
2022/01/10 07:41:57;;;;;;;;;;;1.50;99.90;;;;;;5001331;28;20043;-76
2022/01/10 07:44:23;;;;;;;;;;;1.40;99.90;;;;;;5020392;28;19921;-77
2022/01/10 07:46:48;;;;;;;;;;;1.30;99.90;;;;;;5017125;28;20004;-76
2022/01/10 07:49:14;;;;;;;;;;;1.30;99.90;;;;;;5011768;28;19922;-77
2022/01/10 07:51:39;;;;;;;;;;;1.30;99.90;;;;;;5012174;28;19937;-76
2022/01/10 07:54:05;;;;;;;;;;;1.20;99.90;;;;;;5012126;28;19924;-76
2022/01/10 07:56:31;;;;;;;;;;;1.20;99.90;;;;;;5011439;28;19917;-76
2022/01/10 07:58:56;;;;;;;;;;;1.20;99.90;;;;;;5015298;28;19917;-76
2022/01/10 08:01:22;;;;;;;;;;;1.10;99.90;;;;;;5011750;28;19948;-77
2022/01/10 08:03:50;;;;;;;;;;;1.10;99.90;;;;;;5012158;28;19974;-76
2022/01/10 08:06:17;;;;;;;;;;;1.00;99.90;;;;;;5022541;28;20391;-76
2022/01/10 08:08:43;;;;;;;;;;;1.00;99.90;;;;;;5022793;28;19921;-76
2022/01/10 08:11:08;;;;;;;;;;;1.00;99.90;;;;;;5016912;28;19947;-76
2022/01/10 08:13:34;;;;;;;;;;;1.00;99.90;;;;;;5011231;28;19922;-76
2022/01/10 08:16:00;;;;;;;;;;;1.10;99.90;;;;;;5014533;28;20336;-76
2022/01/10 08:18:26;;;;;;;;;;;1.20;99.90;;;;;;5018869;28;20563;-76
2022/01/10 08:20:52;;;;;;;;;;;1.20;99.90;;;;;;5016615;28;19918;-76
2022/01/10 08:23:17;;;;;;;;;;;1.20;99.90;;;;;;5017148;28;19929;-76
2022/01/10 08:25:43;;;;;;;;;;;1.30;99.90;;;;;;5011581;28;20322;-76
2022/01/10 08:28:08;;;;;;;;;;;1.30;99.90;;;;;;5011899;28;19917;-76
2022/01/10 08:30:35;;;;;;;;;;;1.40;99.90;;;;;;5010866;28;19962;-75
2022/01/10 08:33:00;;;;;;;;;;;1.30;99.90;;;;;;5011827;28;20332;-76
2022/01/10 08:35:26;;;;;;;;;;;1.40;99.90;;;;;;5010719;28;19917;-77
2022/01/10 08:37:52;;;;;;;;;;;1.40;99.90;;;;;;5011358;28;19917;-76
2022/01/10 08:40:17;;;;;;;;;;;1.40;99.90;;;;;;5020194;28;19918;-76
2022/01/10 08:42:43;;;;;;;;;;;1.40;99.90;;;;;;5011492;28;19917;-76
2022/01/10 08:45:09;;;;;;;;;;;1.40;99.90;;;;;;5011563;28;19921;-76
2022/01/10 08:47:35;;;;;;;;;;;1.40;99.90;;;;;;5010648;28;19921;-76
2022/01/10 08:50:01;;;;;;;;;;;1.40;99.90;;;;;;5019339;28;19917;-76
2022/01/10 08:52:27;;;;;;;;;;;1.40;99.90;;;;;;5018553;28;20457;-77
2022/01/10 08:54:52;;;;;;;;;;;1.40;99.90;;;;;;5018361;28;19921;-76
2022/01/10 08:57:18;;;;;;;;;;;1.40;99.90;;;;;;5024353;28;19941;-77
2022/01/10 08:59:44;;;;;;;;;;;1.40;99.90;;;;;;5024320;28;19913;-77
2022/01/10 09:02:12;;;;;;;;;;;1.50;99.90;;;;;;5010448;28;19913;-76
2022/01/10 09:04:38;;;;;;;;;;;1.50;99.90;;;;;;5015077;28;19947;-76
2022/01/10 09:07:05;;;;;;;;;;;1.60;99.90;;;;;;5011059;28;20008;-77
2022/01/10 09:09:31;;;;;;;;;;;1.50;99.90;;;;;;5009552;28;19928;-76
2022/01/10 09:11:57;;;;;;;;;;;1.50;99.90;;;;;;5010334;28;20305;-76
2022/01/10 09:14:22;;;;;;;;;;;1.50;99.90;;;;;;5011014;28;19913;-76
2022/01/10 09:16:48;;;;;;;;;;;1.60;99.90;;;;;;5016191;28;19918;-76
2022/01/10 09:19:13;;;;;;;;;;;1.60;99.90;;;;;;5016460;28;20075;-76
2022/01/10 09:21:41;;;;;;;;;;;1.60;99.90;;;;;;5010303;28;19917;-76
2022/01/10 09:24:06;;;;;;;;;;;1.60;99.90;;;;;;5000031;28;19917;-76
2022/01/10 09:26:32;;;;;;;;;;;1.70;99.90;;;;;;5014580;28;19940;-76
2022/01/10 09:28:59;;;;;;;;;;;1.80;99.90;;;;;;5010168;28;20220;-76
2022/01/10 09:31:25;;;;;;;;;;;1.90;99.90;;;;;;5018421;28;19917;-76
2022/01/10 09:33:54;;;;;;;;;;;2.00;99.90;;;;;;5009998;28;19956;-76
2022/01/10 09:36:20;;;;;;;;;;;2.00;99.90;;;;;;5013705;28;19929;-76
2022/01/10 09:38:46;;;;;;;;;;;2.00;99.90;;;;;;5008988;28;20000;-76
2022/01/10 09:41:12;;;;;;;;;;;2.00;99.90;;;;;;5010226;28;20035;-76
2022/01/10 09:43:37;;;;;;;;;;;2.00;99.90;;;;;;5009166;28;19917;-76
2022/01/10 09:46:03;;;;;;;;;;;2.10;99.90;;;;;;5009856;28;20451;-77
2022/01/10 09:48:28;;;;;;;;;;;2.20;99.90;;;;;;5015188;28;19945;-76
2022/01/10 09:50:54;;;;;;;;;;;2.20;99.90;;;;;;5017637;28;19927;-76
2022/01/10 09:53:21;;;;;;;;;;;2.30;99.90;;;;;;5009914;28;19922;-77
2022/01/10 09:55:50;;;;;;;;;;;2.30;99.90;;;;;;5015564;28;22149;-76
2022/01/10 09:58:15;;;;;;;;;;;2.40;99.90;;;;;;5010587;28;19921;-76
2022/01/10 10:00:41;;;;;;;;;;;2.50;99.90;;;;;;5010897;28;19914;-76
2022/01/10 10:03:06;;;;;;;;;;;2.50;99.90;;;;;;5019562;28;19918;-77
2022/01/10 10:05:32;;;;;;;;;;;2.60;99.90;;;;;;5009532;28;19921;-76
2022/01/10 10:07:58;;;;;;;;;;;2.60;99.90;;;;;;5021312;28;20189;-76
2022/01/10 10:10:26;;;;;;;;;;;2.70;99.90;;;;;;5011872;28;19929;-76
2022/01/10 10:12:52;;;;;;;;;;;2.80;99.90;;;;;;5009477;28;20008;-77
2022/01/10 10:15:21;;;;;;;;;;;3.00;99.90;;;;;;5007957;28;20005;-76
2022/01/10 10:17:47;;;;;;;;;;;3.10;99.90;;;;;;4999430;28;20052;-76
2022/01/10 10:20:15;;;;;;;;;;;3.20;99.90;;;;;;5008550;28;19939;-76
2022/01/10 10:22:42;;;;;;;;;;;3.30;99.90;;;;;;5003007;28;19948;-77
2022/01/10 10:25:09;;;;;;;;;;;3.50;99.90;;;;;;5022094;28;19956;-77
2022/01/10 10:27:35;;;;;;;;;;;3.50;99.90;;;;;;4996919;28;19918;-77
2022/01/10 10:30:03;;;;;;;;;;;3.70;99.90;;;;;;5007646;28;20316;-76
2022/01/10 10:32:30;;;;;;;;;;;3.80;99.90;;;;;;5008685;28;19932;-76
2022/01/10 10:34:56;;;;;;;;;;;3.90;99.90;;;;;;5010006;28;20007;-76
2022/01/10 10:37:21;;;;;;;;;;;4.00;99.90;;;;;;5022391;28;20242;-77
2022/01/10 10:39:47;;;;;;;;;;;4.10;99.90;;;;;;5015496;28;19936;-75
2022/01/10 10:42:16;;;;;;;;;;;4.10;99.90;;;;;;5009698;28;20259;-75
2022/01/10 10:44:43;;;;;;;;;;;4.20;99.90;;;;;;5007080;28;19924;-76
2022/01/10 10:47:09;;;;;;;;;;;4.20;99.90;;;;;;5009615;28;20363;-75
2022/01/10 10:49:38;;;;;;;;;;;4.30;99.90;;;;;;5010070;28;19957;-75
2022/01/10 10:52:06;;;;;;;;;;;4.30;99.90;;;;;;5015060;28;20007;-75
2022/01/10 10:54:33;;;;;;;;;;;4.30;99.90;;;;;;5010026;28;19956;-74
2022/01/10 10:57:03;;;;;;;;;;;4.40;99.90;;;;;;5009515;28;20210;-74
2022/01/10 10:59:30;;;;;;;;;;;4.40;99.90;;;;;;5009760;28;19913;-75
2022/01/10 11:01:57;;;;;;;;;;;4.40;99.90;;;;;;5016992;28;19917;-75
2022/01/10 11:04:22;;;;;;;;;;;4.50;99.90;;;;;;5008913;28;20225;-75
2022/01/10 11:06:48;;;;;;;;;;;4.40;99.90;;;;;;5008856;28;19928;-74
2022/01/10 11:09:14;;;;;;;;;;;4.50;99.90;;;;;;5009129;28;19929;-74
2022/01/10 11:11:41;;;;;;;;;;;4.50;99.90;;;;;;5009357;28;19928;-73
2022/01/10 11:14:09;;;;;;;;;;;4.60;99.90;;;;;;5008861;28;20352;-74
2022/01/10 11:16:36;;;;;;;;;;;4.60;99.90;;;;;;5018411;28;19971;-74
2022/01/10 11:19:01;;;;;;;;;;;4.60;99.90;;;;;;5008632;28;20008;-74
2022/01/10 11:21:28;;;;;;;;;;;4.70;99.90;;;;;;5008921;28;20277;-74
2022/01/10 11:23:55;;;;;;;;;;;4.70;99.90;;;;;;4998261;28;19922;-74
2022/01/10 11:26:21;;;;;;;;;;;4.80;99.90;;;;;;5007936;28;20307;-74
2022/01/10 11:28:52;;;;;;;;;;;4.80;99.90;;;;;;5008791;28;19917;-74
2022/01/10 11:31:27;;;;;;;;;;;4.80;99.90;;;;;;5008498;28;19918;-75
2022/01/10 11:33:54;;;;;;;;;;;4.80;99.90;;;;;;5015979;28;19917;-75
2022/01/10 11:36:21;;;;;;;;;;;4.80;99.90;;;;;;5008818;28;20026;-74
2022/01/10 11:39:07;;;;;;;;;;;4.90;99.90;;;;;;5009100;28;19914;-74
2022/01/10 11:41:33;;;;;;;;;;;4.90;99.90;;;;;;5006487;28;19975;-74
2022/01/10 11:44:11;;;;;;;;;;;4.90;99.90;;;;;;5007584;28;19917;-74
2022/01/10 11:46:37;;;;;;;;;;;5.00;99.90;;;;;;4992149;28;19925;-75
2022/01/10 11:49:04;;;;;;;;;;;5.00;99.90;;;;;;5004945;28;20002;-74
2022/01/10 11:51:31;;;;;;;;;;;5.10;99.90;;;;;;5004773;28;19971;-74
2022/01/10 11:54:00;;;;;;;;;;;5.20;99.90;;;;;;5006276;28;19921;-75
2022/01/10 11:56:26;;;;;;;;;;;5.30;99.90;;;;;;5007962;28;19913;-74
2022/01/10 11:59:07;;;;;;;;;;;5.50;99.90;;;;;;5008193;28;20433;-74
2022/01/10 12:01:34;;;;;;;;;;;5.70;99.90;;;;;;5005633;28;19929;-74
2022/01/10 12:03:59;;;;;;;;;;;5.80;99.90;;;;;;5007510;28;19921;-74
2022/01/10 12:06:25;;;;;;;;;;;5.90;99.90;;;;;;5007471;28;19917;-74
2022/01/10 12:08:55;;;;;;;;;;;5.90;99.90;;;;;;4990338;28;20028;-74
2022/01/10 12:11:25;;;;;;;;;;;6.00;99.90;;;;;;4994192;28;19973;-74
2022/01/10 12:13:52;;;;;;;;;;;6.10;99.90;;;;;;5011360;28;19918;-74
2022/01/10 12:16:18;;;;;;;;;;;6.10;99.90;;;;;;5010236;28;19969;-74
2022/01/10 12:18:44;;;;;;;;;;;6.20;99.90;;;;;;5010078;28;19960;-75
2022/01/10 12:21:09;;;;;;;;;;;6.30;99.90;;;;;;5010652;28;20003;-74
2022/01/10 12:23:35;;;;;;;;;;;6.40;99.90;;;;;;5008662;28;19929;-74
2022/01/10 12:26:01;;;;;;;;;;;6.40;99.90;;;;;;5008047;28;19917;-75
2022/01/10 12:28:27;;;;;;;;;;;6.30;99.90;;;;;;5011036;28;20008;-75
2022/01/10 12:30:52;;;;;;;;;;;6.30;99.90;;;;;;5009528;28;19961;-75
2022/01/10 12:33:18;;;;;;;;;;;6.40;99.90;;;;;;5010882;28;19972;-75
2022/01/10 12:35:44;;;;;;;;;;;6.40;99.90;;;;;;4991869;28;19917;-74
2022/01/10 12:38:09;;;;;;;;;;;6.40;99.90;;;;;;4990409;28;19921;-74
2022/01/10 12:40:35;;;;;;;;;;;6.40;99.90;;;;;;5011149;28;19921;-75
2022/01/10 12:43:00;;;;;;;;;;;6.50;99.90;;;;;;5008459;28;19964;-75
2022/01/10 12:45:33;;;;;;;;;;;6.50;99.90;;;;;;5008917;28;19925;-74
2022/01/10 12:47:58;;;;;;;;;;;6.50;99.90;;;;;;5008483;28;20282;-74
2022/01/10 12:50:25;;;;;;;;;;;6.50;99.90;;;;;;5007894;28;20229;-76
2022/01/10 12:52:52;;;;;;;;;;;6.50;99.90;;;;;;4996936;28;19929;-74
2022/01/10 12:55:18;;;;;;;;;;;6.50;99.90;;;;;;5009507;28;19921;-75
2022/01/10 12:57:43;;;;;;;;;;;6.50;99.90;;;;;;5009563;28;19924;-75
2022/01/10 13:00:10;;;;;;;;;;;6.60;99.90;;;;;;5009886;28;19997;-75
2022/01/10 13:02:35;;;;;;;;;;;6.50;99.90;;;;;;5008720;28;19932;-75
2022/01/10 13:05:05;;;;;;;;;;;6.60;99.90;;;;;;5008241;28;20222;-75
2022/01/10 13:07:31;;;;;;;;;;;6.70;99.90;;;;;;5008977;28;20388;-76
2022/01/10 13:09:59;;;;;;;;;;;6.70;99.90;;;;;;4992947;28;19924;-74
2022/01/10 13:12:26;;;;;;;;;;;6.80;99.90;;;;;;5008796;28;20017;-75
2022/01/10 13:14:53;;;;;;;;;;;6.80;99.90;;;;;;5008980;28;19918;-75
2022/01/10 13:17:22;;;;;;;;;;;6.90;99.90;;;;;;5008920;28;19968;-75
2022/01/10 13:19:57;;;;;;;;;;;6.90;99.90;;;;;;4993574;28;19928;-75
2022/01/10 13:22:29;;;;;;;;;;;6.90;99.90;;;;;;5009732;28;19925;-74
2022/01/10 13:24:57;;;;;;;;;;;6.90;99.90;;;;;;5010149;28;19917;-75
2022/01/10 13:27:25;;;;;;;;;;;6.80;99.90;;;;;;5010447;28;19991;-76
2022/01/10 13:29:52;;;;;;;;;;;6.80;99.90;;;;;;5009035;28;19924;-75
2022/01/10 13:32:25;;;;;;;;;;;6.80;99.90;;;;;;5010455;28;20331;-76
2022/01/10 13:35:07;;;;;;;;;;;6.70;99.90;;;;;;5010126;28;19921;-74
2022/01/10 13:37:37;;;;;;;;;;;6.70;99.90;;;;;;5008066;28;19921;-75
2022/01/10 13:40:06;;;;;;;;;;;6.70;99.90;;;;;;5008686;28;20370;-75
2022/01/10 13:42:50;;;;;;;;;;;6.80;99.90;;;;;;5009342;28;19917;-75
2022/01/10 13:45:16;;;;;;;;;;;6.70;99.90;;;;;;4997354;28;20205;-75
2022/01/10 13:47:56;;;;;;;;;;;6.70;99.90;;;;;;5008843;28;19913;-75
2022/01/10 13:50:30;;;;;;;;;;;6.60;99.90;;;;;;5009101;28;19928;-75
2022/01/10 13:53:03;;;;;;;;;;;6.60;99.90;;;;;;5008936;28;20252;-75
2022/01/10 13:55:29;;;;;;;;;;;6.60;99.90;;;;;;5008537;28;20304;-75
2022/01/10 13:57:54;;;;;;;;;;;6.60;99.90;;;;;;5009309;28;19914;-75
2022/01/10 14:00:23;;;;;;;;;;;6.50;99.90;;;;;;5008648;28;20218;-75
2022/01/10 14:02:50;;;;;;;;;;;6.50;99.90;;;;;;5010068;28;20040;-75
2022/01/10 14:05:19;;;;;;;;;;;6.50;99.90;;;;;;5010298;28;19917;-75
2022/01/10 14:07:44;;;;;;;;;;;6.50;99.90;;;;;;5007855;28;20249;-75
2022/01/10 14:10:10;;;;;;;;;;;6.60;99.90;;;;;;5008266;28;20012;-75
2022/01/10 14:12:35;;;;;;;;;;;6.50;99.90;;;;;;5009989;28;19979;-75
2022/01/10 14:15:01;;;;;;;;;;;6.50;99.90;;;;;;5008548;28;19913;-75
2022/01/10 14:17:27;;;;;;;;;;;6.50;99.90;;;;;;5009794;28;20267;-75
2022/01/10 14:19:52;;;;;;;;;;;6.40;99.90;;;;;;5009356;28;19910;-75
2022/01/10 14:22:18;;;;;;;;;;;6.40;99.90;;;;;;5009104;28;20245;-75
2022/01/10 14:24:44;;;;;;;;;;;6.30;99.90;;;;;;5008249;28;20374;-75
2022/01/10 14:27:09;;;;;;;;;;;6.30;99.90;;;;;;5008000;28;19917;-75
2022/01/10 14:29:35;;;;;;;;;;;6.30;99.90;;;;;;5008439;28;19922;-76
2022/01/10 14:32:00;;;;;;;;;;;6.30;99.90;;;;;;5007105;28;19920;-75
2022/01/10 14:34:26;;;;;;;;;;;6.30;99.90;;;;;;5006505;28;19985;-75
2022/01/10 14:36:51;;;;;;;;;;;6.30;99.90;;;;;;5008339;28;19918;-75
2022/01/10 14:39:17;;;;;;;;;;;6.30;99.90;;;;;;5006543;28;19918;-76
2022/01/10 14:41:42;;;;;;;;;;;6.30;99.90;;;;;;5007497;28;19918;-75